LIBF/FOG METAR and TAF weather

Enter ICAO airport designator
Station Type Date Time Source
LIBF METAR 2022/11/30 17:50 UTC NOAA

LIBF 301750Z 31015KT 9999 SCT030 09/06 Q1012


Station Type Date Time Source
LIBF Decoded METAR 2022/11/30 17:50 UTC NOAA

Station name not available
Nov 30, 2022 - 12:50 PM EST / 2022.11.30 1750 UTC
Wind: from the NW (310 degrees) at 17 MPH (15 KT):0
Visibility: greater than 7 mile(s):0
Sky conditions: partly cloudy
Temperature: 48 F (9 C)
Dew Point: 42 F (6 C)
Relative Humidity: 81%
Pressure (altimeter): 29.88 in. Hg (1012 hPa)
ob: LIBF 301750Z 31015KT 9999 SCT030 09/06 Q1012
cycle: 18

Station Type Date Time Source
LIBF TAF 2022/11/30 18:00 UTC NOAA

TAF LIBF 301700Z 3018/0118 33013KT 9999 SCT020 SCT060

Example: see airport list